To NAV CANADA Home Page Login to a new session Search on AWWS site Disclaimer Vers la page française équivalente Tips FAQ What's new on the site To the Forecasts and Observations / NOTAM section To "File a Flight Plan" website Publications and other links Update of the User's profile FIC Telephone Numbers My Weather Data Folder Route Weather Data Regional Weather Data Local Weather Data To the Forecasts and Observations / NOTAM section
Request Generated 10/19/2018 at 15:34:54 UTC . Weather information available at that time is displayed.

METAR/TAF

NORMAN WELLS/NT    

SPECI CYVQ 191529Z 11008KT 30SM FEW006 FEW100 SCT230 M03/M04 A3006 RMK ST1AC1CI4 ST TR AC TR SLP186=
METAR CYVQ 191500Z 11009KT 30SM FEW100 BKN230 M03/M04 A3007 RMK AC1CI4 SLP191=
METAR CYVQ 191400Z 12008KT 30SM FEW100 FEW230 M04/M05 A3010 RMK AC1CI1 SLP200=
METAR CYVQ 191300Z 10006KT 30SM FEW100 FEW230 M04/M05 A3011 RMK AC1CI1 SLP205=

TAF CYVQ 191138Z 1912/1924 11008KT P6SM FEW060 TEMPO 1912/1919 2SM BR
PROB30 1912/1919 1/2SM FZFG VV002
FM191900 11012KT P6SM BKN200
FM192300 11012KT P6SM SCT040 OVC080 TEMPO 1923/1924 P6SM -RA
RMK NXT FCST BY 191800Z=
Your time UTC time
Weather data provided by Environment Canada and NAV CANADA